sensor_id;sensor_type;location;lat;lon;timestamp;pressure;altitude;pressure_sealevel;temperature;humidity
41706;BME280;27385;51.096;17.190;2023-11-21T00:00:48;99456.52;;;8.14;100.00
41706;BME280;27385;51.096;17.190;2023-11-21T00:04:18;99456.25;;;8.14;100.00
41706;BME280;27385;51.096;17.190;2023-11-21T00:07:10;99458.55;;;8.12;100.00
41706;BME280;27385;51.096;17.190;2023-11-21T00:10:23;99459.65;;;8.11;100.00
41706;BME280;27385;51.096;17.190;2023-11-21T00:13:36;99461.52;;;8.10;100.00
41706;BME280;27385;51.096;17.190;2023-11-21T00:16:26;99466.09;;;8.10;100.00
41706;BME280;27385;51.096;17.190;2023-11-21T00:19:35;99466.08;;;8.08;100.00
41706;BME280;27385;51.096;17.190;2023-11-21T00:22:07;99469.70;;;8.07;100.00
41706;BME280;27385;51.096;17.190;2023-11-21T00:25:07;99473.52;;;8.07;100.00
41706;BME280;27385;51.096;17.190;2023-11-21T00:28:36;99474.28;;;8.07;100.00
41706;BME280;27385;51.096;17.190;2023-11-21T00:31:36;99474.63;;;8.06;100.00
41706;BME280;27385;51.096;17.190;2023-11-21T00:34:51;99479.11;;;8.05;100.00
41706;BME280;27385;51.096;17.190;2023-11-21T00:37:50;99479.54;;;8.03;100.00
41706;BME280;27385;51.096;17.190;2023-11-21T00:41:08;99484.41;;;8.01;100.00
41706;BME280;27385;51.096;17.190;2023-11-21T00:44:27;99484.89;;;8.00;100.00
41706;BME280;27385;51.096;17.190;2023-11-21T00:47:34;99483.91;;;7.99;100.00
41706;BME280;27385;51.096;17.190;2023-11-21T00:50:38;99482.63;;;7.98;100.00
41706;BME280;27385;51.096;17.190;2023-11-21T00:53:43;99481.89;;;7.97;100.00
41706;BME280;27385;51.096;17.190;2023-11-21T01:00:23;99484.73;;;7.94;100.00
41706;BME280;27385;51.096;17.190;2023-11-21T01:03:34;99481.99;;;7.93;100.00
41706;BME280;27385;51.096;17.190;2023-11-21T01:07:05;99479.52;;;7.92;100.00
41706;BME280;27385;51.096;17.190;2023-11-21T01:10:15;99479.11;;;7.91;100.00
41706;BME280;27385;51.096;17.190;2023-11-21T01:13:49;99482.94;;;7.90;100.00
41706;BME280;27385;51.096;17.190;2023-11-21T01:17:01;99488.98;;;7.89;100.00
41706;BME280;27385;51.096;17.190;2023-11-21T01:19:38;99489.16;;;7.87;100.00
41706;BME280;27385;51.096;17.190;2023-11-21T01:22:28;99485.83;;;7.87;100.00
41706;BME280;27385;51.096;17.190;2023-11-21T01:26:00;99487.70;;;7.88;100.00
41706;BME280;27385;51.096;17.190;2023-11-21T01:29:52;99488.09;;;7.87;100.00
41706;BME280;27385;51.096;17.190;2023-11-21T01:32:42;99495.47;;;7.87;100.00
41706;BME280;27385;51.096;17.190;2023-11-21T01:35:36;99493.58;;;7.86;100.00
41706;BME280;27385;51.096;17.190;2023-11-21T01:39:06;99497.63;;;7.86;100.00
41706;BME280;27385;51.096;17.190;2023-11-21T01:42:54;99497.17;;;7.86;100.00
41706;BME280;27385;51.096;17.190;2023-11-21T01:45:54;99497.61;;;7.85;100.00
41706;BME280;27385;51.096;17.190;2023-11-21T01:49:06;99498.46;;;7.84;100.00
41706;BME280;27385;51.096;17.190;2023-11-21T01:52:54;99498.77;;;7.84;100.00
41706;BME280;27385;51.096;17.190;2023-11-21T01:55:50;99499.41;;;7.84;100.00
41706;BME280;27385;51.096;17.190;2023-11-21T01:58:43;99497.39;;;7.84;100.00
41706;BME280;27385;51.096;17.190;2023-11-21T02:02:34;99498.45;;;7.84;100.00
41706;BME280;27385;51.096;17.190;2023-11-21T02:05:27;99499.66;;;7.84;100.00
41706;BME280;27385;51.096;17.190;2023-11-21T02:09:00;99498.19;;;7.83;100.00
41706;BME280;27385;51.096;17.190;2023-11-21T02:11:34;99496.40;;;7.82;100.00
41706;BME280;27385;51.096;17.190;2023-11-21T02:14:44;99494.30;;;7.81;100.00
41706;BME280;27385;51.096;17.190;2023-11-21T02:17:18;99497.02;;;7.80;100.00
41706;BME280;27385;51.096;17.190;2023-11-21T02:19:48;99498.13;;;7.80;100.00
41706;BME280;27385;51.096;17.190;2023-11-21T02:22:49;99501.15;;;7.80;100.00
41706;BME280;27385;51.096;17.190;2023-11-21T02:25:42;99498.19;;;7.78;100.00
41706;BME280;27385;51.096;17.190;2023-11-21T02:28:33;99501.49;;;7.76;100.00
41706;BME280;27385;51.096;17.190;2023-11-21T02:32:03;99503.50;;;7.76;100.00
41706;BME280;27385;51.096;17.190;2023-11-21T02:35:36;99503.13;;;7.74;100.00
41706;BME280;27385;51.096;17.190;2023-11-21T02:39:01;99508.20;;;7.73;100.00
41706;BME280;27385;51.096;17.190;2023-11-21T02:41:35;99512.83;;;7.72;100.00
41706;BME280;27385;51.096;17.190;2023-11-21T02:44:44;99515.02;;;7.73;100.00
41706;BME280;27385;51.096;17.190;2023-11-21T02:47:38;99512.02;;;7.74;100.00
41706;BME280;27385;51.096;17.190;2023-11-21T02:50:11;99513.13;;;7.74;100.00
41706;BME280;27385;51.096;17.190;2023-11-21T02:53:22;99512.22;;;7.75;100.00
41706;BME280;27385;51.096;17.190;2023-11-21T02:56:33;99515.52;;;7.75;100.00
41706;BME280;27385;51.096;17.190;2023-11-21T02:59:08;99515.59;;;7.76;100.00
41706;BME280;27385;51.096;17.190;2023-11-21T03:01:44;99520.95;;;7.76;100.00
41706;BME280;27385;51.096;17.190;2023-11-21T03:04:14;99518.45;;;7.75;100.00
41706;BME280;27385;51.096;17.190;2023-11-21T03:07:29;99514.39;;;7.77;100.00
41706;BME280;27385;51.096;17.190;2023-11-21T03:10:39;99515.21;;;7.78;100.00
41706;BME280;27385;51.096;17.190;2023-11-21T03:13:30;99513.30;;;7.78;100.00
41706;BME280;27385;51.096;17.190;2023-11-21T03:16:21;99518.21;;;7.79;100.00
41706;BME280;27385;51.096;17.190;2023-11-21T03:19:34;99513.45;;;7.78;100.00
41706;BME280;27385;51.096;17.190;2023-11-21T03:22:44;99514.25;;;7.78;100.00
41706;BME280;27385;51.096;17.190;2023-11-21T03:25:58;99515.25;;;7.77;100.00
41706;BME280;27385;51.096;17.190;2023-11-21T03:29:30;99516.52;;;7.78;100.00
41706;BME280;27385;51.096;17.190;2023-11-21T03:32:30;99520.19;;;7.76;100.00
41706;BME280;27385;51.096;17.190;2023-11-21T03:35:25;99524.59;;;7.77;100.00
41706;BME280;27385;51.096;17.190;2023-11-21T03:38:19;99526.46;;;7.77;100.00
41706;BME280;27385;51.096;17.190;2023-11-21T03:41:31;99527.33;;;7.77;100.00
41706;BME280;27385;51.096;17.190;2023-11-21T03:45:00;99531.49;;;7.78;100.00
41706;BME280;27385;51.096;17.190;2023-11-21T03:48:15;99525.20;;;7.77;100.00
41706;BME280;27385;51.096;17.190;2023-11-21T03:51:25;99529.02;;;7.77;100.00
41706;BME280;27385;51.096;17.190;2023-11-21T03:54:35;99524.24;;;7.77;100.00
41706;BME280;27385;51.096;17.190;2023-11-21T03:57:26;99530.66;;;7.77;100.00
41706;BME280;27385;51.096;17.190;2023-11-21T04:00:19;99531.05;;;7.77;100.00
41706;BME280;27385;51.096;17.190;2023-11-21T04:03:13;99536.66;;;7.76;100.00
41706;BME280;27385;51.096;17.190;2023-11-21T04:05:44;99539.55;;;7.77;100.00
41706;BME280;27385;51.096;17.190;2023-11-21T04:08:54;99538.29;;;7.77;100.00
41706;BME280;27385;51.096;17.190;2023-11-21T04:11:54;99542.36;;;7.76;100.00
41706;BME280;27385;51.096;17.190;2023-11-21T04:14:27;99542.20;;;7.76;100.00
41706;BME280;27385;51.096;17.190;2023-11-21T04:17:23;99542.45;;;7.76;100.00
41706;BME280;27385;51.096;17.190;2023-11-21T04:20:34;99547.18;;;7.77;100.00
41706;BME280;27385;51.096;17.190;2023-11-21T04:23:46;99546.07;;;7.77;100.00
41706;BME280;27385;51.096;17.190;2023-11-21T04:27:15;99545.36;;;7.77;100.00
41706;BME280;27385;51.096;17.190;2023-11-21T04:30:29;99552.39;;;7.78;100.00
41706;BME280;27385;51.096;17.190;2023-11-21T04:33:02;99558.77;;;7.78;100.00
41706;BME280;27385;51.096;17.190;2023-11-21T04:35:55;99559.27;;;7.78;100.00
41706;BME280;27385;51.096;17.190;2023-11-21T04:38:48;99561.94;;;7.77;100.00
41706;BME280;27385;51.096;17.190;2023-11-21T04:41:42;99558.70;;;7.77;100.00
41706;BME280;27385;51.096;17.190;2023-11-21T04:44:33;99559.84;;;7.76;100.00
41706;BME280;27385;51.096;17.190;2023-11-21T04:47:10;99558.08;;;7.76;100.00
41706;BME280;27385;51.096;17.190;2023-11-21T04:49:43;99557.45;;;7.75;100.00
41706;BME280;27385;51.096;17.190;2023-11-21T04:52:38;99557.95;;;7.75;100.00
41706;BME280;27385;51.096;17.190;2023-11-21T04:55:46;99560.14;;;7.75;100.00
41706;BME280;27385;51.096;17.190;2023-11-21T04:59:24;99565.92;;;7.74;100.00
41706;BME280;27385;51.096;17.190;2023-11-21T05:02:16;99568.64;;;7.74;100.00
41706;BME280;27385;51.096;17.190;2023-11-21T05:05:28;99572.10;;;7.73;100.00
41706;BME280;27385;51.096;17.190;2023-11-21T05:07:58;99575.09;;;7.72;100.00
41706;BME280;27385;51.096;17.190;2023-11-21T05:10:32;99576.84;;;7.70;100.00
41706;BME280;27385;51.096;17.190;2023-11-21T05:13:51;99579.67;;;7.67;100.00
41706;BME280;27385;51.096;17.190;2023-11-21T05:17:04;99585.07;;;7.65;100.00
41706;BME280;27385;51.096;17.190;2023-11-21T05:20:02;99581.92;;;7.62;100.00
41706;BME280;27385;51.096;17.190;2023-11-21T05:23:12;99584.39;;;7.61;100.00
41706;BME280;27385;51.096;17.190;2023-11-21T05:26:15;99586.34;;;7.60;100.00
41706;BME280;27385;51.096;17.190;2023-11-21T05:28:50;99589.61;;;7.60;100.00
41706;BME280;27385;51.096;17.190;2023-11-21T05:31:23;99586.94;;;7.59;100.00
41706;BME280;27385;51.096;17.190;2023-11-21T05:34:14;99591.10;;;7.58;100.00
41706;BME280;27385;51.096;17.190;2023-11-21T05:36:55;99594.06;;;7.58;100.00
41706;BME280;27385;51.096;17.190;2023-11-21T05:39:47;99592.35;;;7.57;100.00
41706;BME280;27385;51.096;17.190;2023-11-21T05:42:42;99595.17;;;7.58;100.00
41706;BME280;27385;51.096;17.190;2023-11-21T05:45:11;99597.70;;;7.58;100.00
41706;BME280;27385;51.096;17.190;2023-11-21T05:48:01;99602.61;;;7.58;100.00
41706;BME280;27385;51.096;17.190;2023-11-21T05:50:36;99606.07;;;7.59;100.00
41706;BME280;27385;51.096;17.190;2023-11-21T05:53:31;99604.28;;;7.58;100.00
41706;BME280;27385;51.096;17.190;2023-11-21T05:57:00;99608.76;;;7.58;100.00
41706;BME280;27385;51.096;17.190;2023-11-21T05:59:33;99609.44;;;7.58;100.00
41706;BME280;27385;51.096;17.190;2023-11-21T06:02:07;99609.90;;;7.59;100.00
41706;BME280;27385;51.096;17.190;2023-11-21T06:05:21;99610.11;;;7.59;100.00
41706;BME280;27385;51.096;17.190;2023-11-21T06:08:32;99610.77;;;7.60;100.00
41706;BME280;27385;51.096;17.190;2023-11-21T06:11:05;99613.61;;;7.59;100.00
41706;BME280;27385;51.096;17.190;2023-11-21T06:13:35;99616.43;;;7.60;100.00
41706;BME280;27385;51.096;17.190;2023-11-21T06:16:33;99620.86;;;7.59;100.00
41706;BME280;27385;51.096;17.190;2023-11-21T06:19:44;99623.48;;;7.59;100.00
41706;BME280;27385;51.096;17.190;2023-11-21T06:22:59;99628.75;;;7.59;100.00
41706;BME280;27385;51.096;17.190;2023-11-21T06:25:52;99634.46;;;7.60;100.00
41706;BME280;27385;51.096;17.190;2023-11-21T06:29:01;99640.38;;;7.60;100.00
41706;BME280;27385;51.096;17.190;2023-11-21T06:32:17;99645.29;;;7.60;100.00
41706;BME280;27385;51.096;17.190;2023-11-21T06:35:45;99649.21;;;7.60;100.00
41706;BME280;27385;51.096;17.190;2023-11-21T06:38:31;99652.05;;;7.60;100.00
41706;BME280;27385;51.096;17.190;2023-11-21T06:41:13;99654.23;;;7.61;100.00
41706;BME280;27385;51.096;17.190;2023-11-21T06:44:06;99655.50;;;7.61;100.00
41706;BME280;27385;51.096;17.190;2023-11-21T06:46:41;99658.34;;;7.61;100.00
41706;BME280;27385;51.096;17.190;2023-11-21T06:49:55;99660.42;;;7.62;100.00
41706;BME280;27385;51.096;17.190;2023-11-21T06:53:07;99658.63;;;7.63;100.00
41706;BME280;27385;51.096;17.190;2023-11-21T06:55:57;99663.65;;;7.64;100.00
41706;BME280;27385;51.096;17.190;2023-11-21T06:58:28;99663.83;;;7.65;100.00
41706;BME280;27385;51.096;17.190;2023-11-21T07:00:57;99665.06;;;7.66;100.00
41706;BME280;27385;51.096;17.190;2023-11-21T07:03:26;99669.02;;;7.67;100.00
41706;BME280;27385;51.096;17.190;2023-11-21T07:06:00;99673.11;;;7.69;100.00
41706;BME280;27385;51.096;17.190;2023-11-21T07:08:30;99672.60;;;7.70;100.00
41706;BME280;27385;51.096;17.190;2023-11-21T07:11:04;99670.41;;;7.70;100.00
41706;BME280;27385;51.096;17.190;2023-11-21T07:13:34;99671.25;;;7.73;100.00
41706;BME280;27385;51.096;17.190;2023-11-21T07:16:05;99671.23;;;7.74;100.00
41706;BME280;27385;51.096;17.190;2023-11-21T07:18:51;99671.95;;;7.76;100.00
41706;BME280;27385;51.096;17.190;2023-11-21T07:21:20;99673.80;;;7.79;100.00
41706;BME280;27385;51.096;17.190;2023-11-21T07:23:49;99673.18;;;7.80;100.00
41706;BME280;27385;51.096;17.190;2023-11-21T07:26:19;99679.05;;;7.80;100.00
41706;BME280;27385;51.096;17.190;2023-11-21T07:28:49;99676.64;;;7.81;100.00
41706;BME280;27385;51.096;17.190;2023-11-21T07:31:18;99681.16;;;7.82;100.00
41706;BME280;27385;51.096;17.190;2023-11-21T07:33:48;99686.52;;;7.83;100.00
41706;BME280;27385;51.096;17.190;2023-11-21T07:36:18;99685.54;;;7.84;100.00
41706;BME280;27385;51.096;17.190;2023-11-21T07:38:49;99689.98;;;7.84;100.00
41706;BME280;27385;51.096;17.190;2023-11-21T07:41:20;99685.95;;;7.84;100.00
41706;BME280;27385;51.096;17.190;2023-11-21T07:43:50;99687.15;;;7.83;100.00
41706;BME280;27385;51.096;17.190;2023-11-21T07:46:20;99687.65;;;7.83;100.00
41706;BME280;27385;51.096;17.190;2023-11-21T07:48:49;99689.15;;;7.83;100.00
41706;BME280;27385;51.096;17.190;2023-11-21T07:51:19;99687.87;;;7.82;100.00
41706;BME280;27385;51.096;17.190;2023-11-21T07:53:48;99688.42;;;7.82;100.00
41706;BME280;27385;51.096;17.190;2023-11-21T07:56:20;99692.57;;;7.81;100.00
41706;BME280;27385;51.096;17.190;2023-11-21T07:59:03;99694.81;;;7.81;100.00
41706;BME280;27385;51.096;17.190;2023-11-21T08:01:55;99694.45;;;7.82;100.00
41706;BME280;27385;51.096;17.190;2023-11-21T08:04:24;99699.73;;;7.84;100.00
41706;BME280;27385;51.096;17.190;2023-11-21T08:06:54;99696.09;;;7.85;100.00
41706;BME280;27385;51.096;17.190;2023-11-21T08:09:23;99697.03;;;7.87;100.00
41706;BME280;27385;51.096;17.190;2023-11-21T08:11:54;99701.09;;;7.88;100.00
41706;BME280;27385;51.096;17.190;2023-11-21T08:14:25;99701.24;;;7.90;100.00
41706;BME280;27385;51.096;17.190;2023-11-21T08:16:54;99700.47;;;7.91;100.00
41706;BME280;27385;51.096;17.190;2023-11-21T08:19:26;99706.60;;;7.93;100.00
41706;BME280;27385;51.096;17.190;2023-11-21T08:21:56;99701.93;;;7.94;100.00
41706;BME280;27385;51.096;17.190;2023-11-21T08:24:27;99702.13;;;7.96;100.00
41706;BME280;27385;51.096;17.190;2023-11-21T08:26:57;99707.27;;;7.98;100.00
41706;BME280;27385;51.096;17.190;2023-11-21T08:29:26;99712.99;;;7.99;100.00
41706;BME280;27385;51.096;17.190;2023-11-21T08:31:57;99716.38;;;7.99;100.00
41706;BME280;27385;51.096;17.190;2023-11-21T08:34:28;99717.38;;;7.99;100.00
41706;BME280;27385;51.096;17.190;2023-11-21T08:36:58;99719.55;;;7.99;100.00
41706;BME280;27385;51.096;17.190;2023-11-21T08:39:28;99723.56;;;7.99;100.00
41706;BME280;27385;51.096;17.190;2023-11-21T08:42:18;99725.51;;;8.00;100.00
41706;BME280;27385;51.096;17.190;2023-11-21T08:45:10;99729.58;;;8.00;100.00
41706;BME280;27385;51.096;17.190;2023-11-21T08:47:39;99731.52;;;8.01;100.00
41706;BME280;27385;51.096;17.190;2023-11-21T08:50:10;99731.04;;;8.01;100.00
41706;BME280;27385;51.096;17.190;2023-11-21T08:52:41;99732.89;;;8.00;100.00
41706;BME280;27385;51.096;17.190;2023-11-21T08:55:11;99732.92;;;8.00;100.00
41706;BME280;27385;51.096;17.190;2023-11-21T08:57:45;99730.15;;;8.00;100.00
41706;BME280;27385;51.096;17.190;2023-11-21T09:00:18;99726.98;;;8.01;100.00
41706;BME280;27385;51.096;17.190;2023-11-21T09:02:47;99725.08;;;8.02;100.00
41706;BME280;27385;51.096;17.190;2023-11-21T09:05:18;99725.08;;;8.04;100.00
41706;BME280;27385;51.096;17.190;2023-11-21T09:07:49;99723.05;;;8.06;100.00
41706;BME280;27385;51.096;17.190;2023-11-21T09:10:28;99721.33;;;8.09;100.00
41706;BME280;27385;51.096;17.190;2023-11-21T09:12:58;99721.63;;;8.09;100.00
41706;BME280;27385;51.096;17.190;2023-11-21T09:15:28;99726.23;;;8.11;100.00
41706;BME280;27385;51.096;17.190;2023-11-21T09:17:57;99729.78;;;8.11;100.00
41706;BME280;27385;51.096;17.190;2023-11-21T09:20:27;99731.04;;;8.13;100.00
41706;BME280;27385;51.096;17.190;2023-11-21T09:23:01;99734.29;;;8.17;100.00
41706;BME280;27385;51.096;17.190;2023-11-21T09:25:30;99734.61;;;8.20;100.00
41706;BME280;27385;51.096;17.190;2023-11-21T09:27:59;99733.48;;;8.22;100.00
41706;BME280;27385;51.096;17.190;2023-11-21T09:30:31;99735.03;;;8.24;100.00
41706;BME280;27385;51.096;17.190;2023-11-21T09:33:01;99735.84;;;8.26;100.00
41706;BME280;27385;51.096;17.190;2023-11-21T09:35:53;99736.39;;;8.28;100.00
41706;BME280;27385;51.096;17.190;2023-11-21T09:38:23;99741.56;;;8.30;100.00
41706;BME280;27385;51.096;17.190;2023-11-21T09:40:54;99738.20;;;8.32;100.00
41706;BME280;27385;51.096;17.190;2023-11-21T09:43:23;99738.38;;;8.35;100.00
41706;BME280;27385;51.096;17.190;2023-11-21T09:45:59;99739.26;;;8.37;100.00
41706;BME280;27385;51.096;17.190;2023-11-21T09:48:30;99738.73;;;8.38;100.00
41706;BME280;27385;51.096;17.190;2023-11-21T09:51:02;99744.88;;;8.40;100.00
41706;BME280;27385;51.096;17.190;2023-11-21T09:53:31;99746.61;;;8.40;100.00
41706;BME280;27385;51.096;17.190;2023-11-21T09:56:02;99746.59;;;8.39;100.00
41706;BME280;27385;51.096;17.190;2023-11-21T09:58:33;99750.79;;;8.39;100.00
41706;BME280;27385;51.096;17.190;2023-11-21T10:01:04;99745.24;;;8.40;100.00
41706;BME280;27385;51.096;17.190;2023-11-21T10:03:37;99746.98;;;8.41;100.00
41706;BME280;27385;51.096;17.190;2023-11-21T10:06:08;99747.25;;;8.42;100.00
41706;BME280;27385;51.096;17.190;2023-11-21T10:08:38;99746.95;;;8.44;100.00
41706;BME280;27385;51.096;17.190;2023-11-21T10:11:09;99747.89;;;8.46;100.00
41706;BME280;27385;51.096;17.190;2023-11-21T10:13:40;99749.52;;;8.47;100.00
41706;BME280;27385;51.096;17.190;2023-11-21T10:16:10;99747.42;;;8.49;100.00
41706;BME280;27385;51.096;17.190;2023-11-21T10:18:44;99750.18;;;8.49;100.00
41706;BME280;27385;51.096;17.190;2023-11-21T10:21:14;99753.36;;;8.48;100.00
41706;BME280;27385;51.096;17.190;2023-11-21T10:23:45;99756.08;;;8.46;100.00
41706;BME280;27385;51.096;17.190;2023-11-21T10:26:16;99763.33;;;8.44;100.00
41706;BME280;27385;51.096;17.190;2023-11-21T10:28:57;99764.38;;;8.44;100.00
41706;BME280;27385;51.096;17.190;2023-11-21T10:31:28;99767.08;;;8.39;100.00
41706;BME280;27385;51.096;17.190;2023-11-21T10:34:13;99771.89;;;8.28;100.00
41706;BME280;27385;51.096;17.190;2023-11-21T10:36:44;99772.74;;;8.13;100.00
41706;BME280;27385;51.096;17.190;2023-11-21T10:39:17;99775.66;;;8.06;100.00
41706;BME280;27385;51.096;17.190;2023-11-21T10:41:48;99781.42;;;7.98;100.00
41706;BME280;27385;51.096;17.190;2023-11-21T10:44:18;99784.96;;;7.96;100.00
41706;BME280;27385;51.096;17.190;2023-11-21T10:46:49;99786.71;;;7.85;100.00
41706;BME280;27385;51.096;17.190;2023-11-21T10:49:18;99785.52;;;7.74;100.00
41706;BME280;27385;51.096;17.190;2023-11-21T10:51:47;99787.65;;;7.69;100.00
41706;BME280;27385;51.096;17.190;2023-11-21T10:54:22;99789.64;;;7.61;100.00
41706;BME280;27385;51.096;17.190;2023-11-21T10:56:56;99788.85;;;7.59;100.00
41706;BME280;27385;51.096;17.190;2023-11-21T10:59:28;99787.23;;;7.53;100.00
41706;BME280;27385;51.096;17.190;2023-11-21T11:02:00;99794.26;;;7.42;100.00
41706;BME280;27385;51.096;17.190;2023-11-21T11:04:33;99793.84;;;7.34;100.00
41706;BME280;27385;51.096;17.190;2023-11-21T11:07:09;99799.95;;;7.34;100.00
41706;BME280;27385;51.096;17.190;2023-11-21T11:09:42;99799.15;;;7.27;100.00
41706;BME280;27385;51.096;17.190;2023-11-21T11:12:13;99797.38;;;7.17;100.00
41706;BME280;27385;51.096;17.190;2023-11-21T11:14:43;99795.32;;;7.14;100.00
41706;BME280;27385;51.096;17.190;2023-11-21T11:17:13;99797.15;;;7.12;100.00
41706;BME280;27385;51.096;17.190;2023-11-21T11:19:44;99796.79;;;7.06;100.00
41706;BME280;27385;51.096;17.190;2023-11-21T11:22:19;99796.69;;;7.07;100.00
41706;BME280;27385;51.096;17.190;2023-11-21T11:25:10;99792.90;;;7.06;100.00
41706;BME280;27385;51.096;17.190;2023-11-21T11:27:51;99797.34;;;7.06;100.00
41706;BME280;27385;51.096;17.190;2023-11-21T11:30:32;99803.59;;;7.00;100.00
41706;BME280;27385;51.096;17.190;2023-11-21T11:33:12;99808.86;;;6.95;100.00
41706;BME280;27385;51.096;17.190;2023-11-21T11:35:51;99810.82;;;6.91;100.00
41706;BME280;27385;51.096;17.190;2023-11-21T11:38:23;99811.98;;;6.88;100.00
41706;BME280;27385;51.096;17.190;2023-11-21T11:40:54;99812.39;;;6.84;100.00
41706;BME280;27385;51.096;17.190;2023-11-21T11:43:29;99817.64;;;6.78;100.00
41706;BME280;27385;51.096;17.190;2023-11-21T11:46:02;99819.95;;;6.73;100.00
41706;BME280;27385;51.096;17.190;2023-11-21T11:48:36;99828.86;;;6.63;100.00
41706;BME280;27385;51.096;17.190;2023-11-21T11:51:10;99831.50;;;6.60;100.00
41706;BME280;27385;51.096;17.190;2023-11-21T11:53:44;99830.48;;;6.56;100.00
41706;BME280;27385;51.096;17.190;2023-11-21T11:56:23;99837.45;;;6.47;100.00
41706;BME280;27385;51.096;17.190;2023-11-21T11:58:55;99834.86;;;6.47;100.00
41706;BME280;27385;51.096;17.190;2023-11-21T12:01:26;99836.15;;;6.43;100.00
41706;BME280;27385;51.096;17.190;2023-11-21T12:04:25;99837.64;;;6.39;100.00
41706;BME280;27385;51.096;17.190;2023-11-21T12:07:01;99839.50;;;6.36;100.00
41706;BME280;27385;51.096;17.190;2023-11-21T12:09:33;99843.96;;;6.36;100.00
41706;BME280;27385;51.096;17.190;2023-11-21T12:12:03;99848.48;;;6.28;100.00
41706;BME280;27385;51.096;17.190;2023-11-21T12:14:33;99850.33;;;6.26;100.00
41706;BME280;27385;51.096;17.190;2023-11-21T12:17:02;99850.96;;;6.26;100.00
41706;BME280;27385;51.096;17.190;2023-11-21T12:19:33;99851.98;;;6.22;100.00
41706;BME280;27385;51.096;17.190;2023-11-21T12:22:03;99847.85;;;6.19;100.00
41706;BME280;27385;51.096;17.190;2023-11-21T12:24:32;99847.73;;;6.12;100.00
41706;BME280;27385;51.096;17.190;2023-11-21T12:27:01;99849.20;;;6.05;100.00
41706;BME280;27385;51.096;17.190;2023-11-21T12:29:31;99850.88;;;6.01;100.00
41706;BME280;27385;51.096;17.190;2023-11-21T12:32:01;99852.74;;;5.98;100.00
41706;BME280;27385;51.096;17.190;2023-11-21T12:34:31;99853.08;;;5.92;100.00
41706;BME280;27385;51.096;17.190;2023-11-21T12:37:01;99858.48;;;5.87;100.00
41706;BME280;27385;51.096;17.190;2023-11-21T12:39:30;99870.00;;;5.84;100.00
41706;BME280;27385;51.096;17.190;2023-11-21T12:41:59;99877.11;;;5.80;100.00
41706;BME280;27385;51.096;17.190;2023-11-21T12:44:28;99881.78;;;5.75;100.00
41706;BME280;27385;51.096;17.190;2023-11-21T12:47:00;99881.00;;;5.73;100.00
41706;BME280;27385;51.096;17.190;2023-11-21T12:49:29;99887.88;;;5.69;100.00
41706;BME280;27385;51.096;17.190;2023-11-21T12:52:00;99894.61;;;5.61;100.00
41706;BME280;27385;51.096;17.190;2023-11-21T12:54:31;99893.36;;;5.58;100.00
41706;BME280;27385;51.096;17.190;2023-11-21T12:57:04;99900.30;;;5.52;100.00
41706;BME280;27385;51.096;17.190;2023-11-21T12:59:36;99903.56;;;5.42;100.00
41706;BME280;27385;51.096;17.190;2023-11-21T13:02:07;99908.94;;;5.35;100.00
41706;BME280;27385;51.096;17.190;2023-11-21T13:04:37;99911.37;;;5.34;100.00
41706;BME280;27385;51.096;17.190;2023-11-21T13:07:07;99919.66;;;5.28;100.00
41706;BME280;27385;51.096;17.190;2023-11-21T13:09:42;99920.20;;;5.28;100.00
41706;BME280;27385;51.096;17.190;2023-11-21T13:12:11;99927.39;;;5.20;100.00
41706;BME280;27385;51.096;17.190;2023-11-21T13:14:41;99932.59;;;5.12;100.00
41706;BME280;27385;51.096;17.190;2023-11-21T13:17:11;99933.25;;;5.06;100.00
41706;BME280;27385;51.096;17.190;2023-11-21T13:19:40;99940.50;;;5.03;100.00
41706;BME280;27385;51.096;17.190;2023-11-21T13:22:10;99939.77;;;5.01;100.00
41706;BME280;27385;51.096;17.190;2023-11-21T13:24:39;99943.22;;;4.99;100.00
41706;BME280;27385;51.096;17.190;2023-11-21T13:27:13;99944.30;;;4.98;100.00
41706;BME280;27385;51.096;17.190;2023-11-21T13:29:43;99948.27;;;4.98;100.00
41706;BME280;27385;51.096;17.190;2023-11-21T13:32:12;99952.50;;;4.91;100.00
41706;BME280;27385;51.096;17.190;2023-11-21T13:34:44;99959.09;;;4.83;100.00
41706;BME280;27385;51.096;17.190;2023-11-21T13:37:16;99964.76;;;4.75;100.00
41706;BME280;27385;51.096;17.190;2023-11-21T13:39:45;99967.42;;;4.71;100.00
41706;BME280;27385;51.096;17.190;2023-11-21T13:42:17;99970.52;;;4.63;100.00
41706;BME280;27385;51.096;17.190;2023-11-21T13:44:46;99973.77;;;4.58;100.00
41706;BME280;27385;51.096;17.190;2023-11-21T13:47:15;99977.02;;;4.48;100.00
41706;BME280;27385;51.096;17.190;2023-11-21T13:49:45;99977.34;;;4.41;100.00
41706;BME280;27385;51.096;17.190;2023-11-21T13:52:36;99981.38;;;4.36;100.00
41706;BME280;27385;51.096;17.190;2023-11-21T13:55:11;99985.98;;;4.30;100.00
41706;BME280;27385;51.096;17.190;2023-11-21T13:57:48;99993.42;;;4.24;100.00
41706;BME280;27385;51.096;17.190;2023-11-21T14:01:02;99995.47;;;4.15;100.00
41706;BME280;27385;51.096;17.190;2023-11-21T14:03:56;99998.08;;;4.08;100.00
41706;BME280;27385;51.096;17.190;2023-11-21T14:07:07;100002.03;;;3.95;100.00
41706;BME280;27385;51.096;17.190;2023-11-21T14:09:51;100003.36;;;3.94;100.00
41706;BME280;27385;51.096;17.190;2023-11-21T14:12:21;100011.79;;;3.91;100.00
41706;BME280;27385;51.096;17.190;2023-11-21T14:14:50;100016.52;;;3.86;100.00
41706;BME280;27385;51.096;17.190;2023-11-21T14:17:19;100020.27;;;3.84;100.00
41706;BME280;27385;51.096;17.190;2023-11-21T14:19:51;100024.02;;;3.83;100.00
41706;BME280;27385;51.096;17.190;2023-11-21T14:22:20;100027.86;;;3.76;100.00
41706;BME280;27385;51.096;17.190;2023-11-21T14:24:49;100032.87;;;3.72;100.00
41706;BME280;27385;51.096;17.190;2023-11-21T14:27:20;100041.56;;;3.65;100.00